createdAt,value
2022-11-01T00:00:32.601Z,13.74
2022-11-01T00:03:17.993Z,13.76
2022-11-01T00:06:03.658Z,13.72
2022-11-01T00:08:48.820Z,13.68
2022-11-01T00:11:34.391Z,13.64
2022-11-01T00:14:20.241Z,13.62
2022-11-01T00:17:05.647Z,13.59
2022-11-01T00:19:51.062Z,13.60
2022-11-01T00:22:36.406Z,13.58
2022-11-01T00:25:21.738Z,13.58
2022-11-01T00:28:07.264Z,13.59
2022-11-01T00:30:53.374Z,13.59
2022-11-01T00:33:42.015Z,13.61
2022-11-01T00:36:27.544Z,13.60
2022-11-01T00:39:14.390Z,13.61
2022-11-01T00:41:59.661Z,13.56
2022-11-01T00:44:58.200Z,13.56
2022-11-01T00:47:46.116Z,13.53
2022-11-01T00:50:31.327Z,13.50
2022-11-01T00:53:16.688Z,13.50
2022-11-01T00:56:04.160Z,13.50
2022-11-01T00:58:49.303Z,13.46
2022-11-01T01:01:34.788Z,13.43
2022-11-01T01:04:19.973Z,13.41
2022-11-01T01:07:05.485Z,13.39
2022-11-01T01:09:50.745Z,13.36
2022-11-01T01:12:36.250Z,13.31
2022-11-01T01:15:21.548Z,13.31
2022-11-01T01:18:06.925Z,13.29
2022-11-01T01:21:00.125Z,13.24
2022-11-01T01:23:46.776Z,13.21
2022-11-01T01:26:42.462Z,13.18
2022-11-01T01:29:27.779Z,13.16
2022-11-01T01:32:19.025Z,13.22
2022-11-01T01:35:04.974Z,13.21
2022-11-01T01:37:50.085Z,13.25
2022-11-01T01:40:35.745Z,13.29
2022-11-01T01:43:20.827Z,13.30
2022-11-01T01:46:05.992Z,13.33
2022-11-01T01:48:56.506Z,13.32
2022-11-01T01:51:41.933Z,13.32
2022-11-01T01:54:28.310Z,13.32
2022-11-01T01:57:14.014Z,13.32
2022-11-01T01:59:59.708Z,13.32
2022-11-01T02:02:45.373Z,13.33
2022-11-01T02:05:58.002Z,13.33
2022-11-01T02:08:48.305Z,13.34
2022-11-01T02:11:34.022Z,13.30
2022-11-01T02:14:23.222Z,13.28
2022-11-01T02:17:23.693Z,13.26
2022-11-01T02:20:34.281Z,13.27
2022-11-01T02:23:44.373Z,13.25
2022-11-01T02:27:12.333Z,13.25
2022-11-01T02:30:09.820Z,13.24
2022-11-01T02:33:15.373Z,13.21
2022-11-01T02:36:33.316Z,13.18
2022-11-01T02:39:32.685Z,13.17
2022-11-01T02:42:24.591Z,13.14
2022-11-01T02:45:28.834Z,13.11
2022-11-01T02:48:14.179Z,13.08
2022-11-01T02:51:00.307Z,13.07
2022-11-01T02:53:45.816Z,13.03
2022-11-01T02:56:31.046Z,13.03
2022-11-01T02:59:27.931Z,13.02
2022-11-01T03:02:41.570Z,13.01
2022-11-01T03:05:44.912Z,13.01
2022-11-01T03:08:35.413Z,13.00
2022-11-01T03:11:43.999Z,13.02
2022-11-01T03:14:47.409Z,13.01
2022-11-01T03:17:40.742Z,12.99
2022-11-01T03:20:49.662Z,12.99
2022-11-01T03:23:43.309Z,12.97
2022-11-01T03:26:33.748Z,12.99
2022-11-01T03:29:22.990Z,12.97
2022-11-01T03:32:09.509Z,12.95
2022-11-01T03:34:57.481Z,12.96
2022-11-01T03:37:46.100Z,12.95
2022-11-01T03:40:33.099Z,12.94
2022-11-01T03:43:21.048Z,12.91
2022-11-01T03:46:07.893Z,12.90
2022-11-01T03:48:53.257Z,12.87
2022-11-01T03:51:38.714Z,12.85
2022-11-01T03:54:24.026Z,12.82
2022-11-01T03:57:09.205Z,12.81
2022-11-01T03:59:54.489Z,12.82
2022-11-01T04:02:39.935Z,12.79
2022-11-01T04:05:27.686Z,12.79
2022-11-01T04:08:13.257Z,12.77
2022-11-01T04:10:58.649Z,12.76
2022-11-01T04:13:44.051Z,12.73
2022-11-01T04:16:47.792Z,12.71
2022-11-01T04:19:51.314Z,12.67
2022-11-01T04:22:37.131Z,12.64
2022-11-01T04:25:22.506Z,12.62
2022-11-01T04:28:07.636Z,12.61
2022-11-01T04:30:53.481Z,12.61
2022-11-01T04:33:38.662Z,12.63
2022-11-01T04:36:24.393Z,12.65
2022-11-01T04:39:09.984Z,12.62
2022-11-01T04:41:55.396Z,12.61
2022-11-01T04:44:40.788Z,12.60
2022-11-01T04:47:26.191Z,12.61
2022-11-01T04:50:11.540Z,12.61
2022-11-01T04:52:59.342Z,12.62
2022-11-01T04:55:44.825Z,12.61
2022-11-01T04:58:30.337Z,12.62
2022-11-01T05:01:15.576Z,12.62
2022-11-01T05:04:00.807Z,12.63
2022-11-01T05:06:46.209Z,12.64
2022-11-01T05:09:31.683Z,12.64
2022-11-01T05:12:16.666Z,12.66
2022-11-01T05:15:02.115Z,12.67
2022-11-01T05:17:47.341Z,12.67
2022-11-01T05:20:32.659Z,12.66
2022-11-01T05:23:17.899Z,12.67
2022-11-01T05:26:03.214Z,12.70
2022-11-01T05:28:48.645Z,12.63
2022-11-01T05:31:33.997Z,12.58
2022-11-01T05:34:19.687Z,12.56
2022-11-01T05:37:04.855Z,12.55
2022-11-01T05:39:50.286Z,12.51
2022-11-01T05:42:38.474Z,12.52
2022-11-01T05:45:24.270Z,12.54
2022-11-01T05:48:09.365Z,12.56
2022-11-01T05:50:54.790Z,12.56
2022-11-01T05:53:39.985Z,12.54
2022-11-01T05:56:25.003Z,12.56
2022-11-01T05:59:10.056Z,12.57
2022-11-01T06:01:55.561Z,12.57
2022-11-01T06:04:40.856Z,12.57
2022-11-01T06:07:26.991Z,12.58
2022-11-01T06:10:12.093Z,12.57
2022-11-01T06:12:57.657Z,12.58
2022-11-01T06:15:42.675Z,12.58
2022-11-01T06:18:28.304Z,12.58
2022-11-01T06:21:13.331Z,12.56
2022-11-01T06:23:58.789Z,12.57
2022-11-01T06:26:44.261Z,12.58
2022-11-01T06:29:29.617Z,12.59
2022-11-01T06:32:15.066Z,12.60
2022-11-01T06:35:00.452Z,12.60
2022-11-01T06:37:46.706Z,12.62
2022-11-01T06:40:32.788Z,12.63
2022-11-01T06:43:18.232Z,12.67
2022-11-01T06:46:03.915Z,12.70
2022-11-01T06:48:49.092Z,12.75
2022-11-01T06:51:34.457Z,12.79
2022-11-01T06:54:19.580Z,12.85
2022-11-01T06:57:04.813Z,12.90
2022-11-01T06:59:50.305Z,12.93
2022-11-01T07:02:35.948Z,12.94
2022-11-01T07:05:21.280Z,12.96
2022-11-01T07:08:09.038Z,13.03
2022-11-01T07:10:54.408Z,13.12
2022-11-01T07:13:39.907Z,13.21
2022-11-01T07:16:25.721Z,13.29
2022-11-01T07:19:11.161Z,13.32
2022-11-01T07:21:56.517Z,13.37
2022-11-01T07:24:41.810Z,13.38
2022-11-01T07:27:26.947Z,13.43
2022-11-01T07:30:12.683Z,13.43
2022-11-01T07:33:01.074Z,13.41
2022-11-01T07:35:47.943Z,13.45
2022-11-01T07:38:33.078Z,13.49
2022-11-01T07:44:03.889Z,13.60
2022-11-01T07:46:49.171Z,13.64
2022-11-01T07:49:34.384Z,13.66
2022-11-01T07:52:19.372Z,13.68
2022-11-01T07:55:05.288Z,13.69
2022-11-01T07:57:50.772Z,13.70
2022-11-01T08:00:37.106Z,13.70
2022-11-01T08:03:24.935Z,13.68
2022-11-01T08:06:10.277Z,13.68
2022-11-01T08:08:55.580Z,13.71
2022-11-01T08:11:41.272Z,13.75
2022-11-01T08:14:26.604Z,13.79
2022-11-01T08:17:13.104Z,13.85
2022-11-01T08:19:58.711Z,13.94
2022-11-01T08:22:44.071Z,14.01
2022-11-01T08:25:30.638Z,14.04
2022-11-01T08:28:19.318Z,14.06
2022-11-01T08:31:10.276Z,14.09
2022-11-01T08:33:56.272Z,14.19
2022-11-01T08:36:41.639Z,14.30
2022-11-01T08:39:27.134Z,14.36
2022-11-01T08:42:12.482Z,14.42
2022-11-01T08:44:57.608Z,14.52
2022-11-01T08:47:43.202Z,14.63
2022-11-01T08:50:29.232Z,14.80
2022-11-01T08:53:18.370Z,15.17
2022-11-01T08:56:04.049Z,15.50
2022-11-01T08:58:49.484Z,15.80
2022-11-01T09:01:34.990Z,15.99
2022-11-01T09:04:20.274Z,16.09
2022-11-01T09:07:05.467Z,16.04
2022-11-01T09:09:50.745Z,16.08
2022-11-01T09:12:36.698Z,16.12
2022-11-01T09:15:22.186Z,16.01
2022-11-01T09:18:07.628Z,15.96
2022-11-01T09:20:56.531Z,15.92
2022-11-01T09:23:41.699Z,15.89
2022-11-01T09:26:27.261Z,15.96
2022-11-01T09:29:12.406Z,16.04
2022-11-01T09:31:57.978Z,16.01
2022-11-01T09:34:43.149Z,15.92
2022-11-01T09:37:28.654Z,15.84
2022-11-01T09:40:15.280Z,15.87
2022-11-01T09:43:02.111Z,15.92
2022-11-01T09:45:51.299Z,16.00
2022-11-01T09:48:37.368Z,16.04
2022-11-01T09:51:24.472Z,16.12
2022-11-01T09:54:10.490Z,16.11
2022-11-01T09:57:18.795Z,16.18
2022-11-01T10:00:13.487Z,16.32
2022-11-01T10:02:58.775Z,16.29
2022-11-01T10:06:01.994Z,16.27
2022-11-01T10:09:01.425Z,16.27
2022-11-01T10:12:09.697Z,16.23
2022-11-01T10:15:22.555Z,16.15
2022-11-01T10:18:25.364Z,16.09
2022-11-01T10:21:16.450Z,16.07
2022-11-01T10:24:07.188Z,16.07
2022-11-01T10:27:02.974Z,16.08
2022-11-01T10:30:03.605Z,16.11
2022-11-01T10:32:49.358Z,16.17
2022-11-01T10:35:41.719Z,16.21
2022-11-01T10:39:10.708Z,16.23
2022-11-01T10:41:50.631Z,16.24
2022-11-01T10:44:59.501Z,16.26
2022-11-01T10:47:48.274Z,16.29
2022-11-01T10:50:34.105Z,16.33
2022-11-01T10:53:20.460Z,16.37
2022-11-01T10:56:10.028Z,16.40
2022-11-01T10:59:04.472Z,16.46
2022-11-01T11:01:52.926Z,16.46
2022-11-01T11:04:38.543Z,16.53
2022-11-01T11:07:28.176Z,16.79
2022-11-01T11:10:34.953Z,16.99
2022-11-01T11:13:22.758Z,17.35
2022-11-01T11:16:31.114Z,17.65
2022-11-01T11:19:22.431Z,17.74
2022-11-01T11:22:09.208Z,17.76
2022-11-01T11:24:58.835Z,17.78
2022-11-01T11:27:48.037Z,17.87
2022-11-01T11:30:35.295Z,17.90
2022-11-01T11:33:20.925Z,17.88
2022-11-01T11:36:07.197Z,17.79
2022-11-01T11:38:54.982Z,17.66
2022-11-01T11:41:41.838Z,17.57
2022-11-01T11:44:55.722Z,17.47
2022-11-01T11:47:42.048Z,17.40
2022-11-01T11:50:33.133Z,17.33
2022-11-01T11:53:22.854Z,17.24
2022-11-01T11:56:09.200Z,17.20
2022-11-01T11:58:56.005Z,17.18
2022-11-01T12:01:41.606Z,17.12
2022-11-01T12:04:39.448Z,17.11
2022-11-01T12:07:32.238Z,17.09
2022-11-01T12:10:39.159Z,17.06
2022-11-01T12:13:44.338Z,17.04
2022-11-01T12:16:29.776Z,17.02
2022-11-01T12:19:29.949Z,17.00
2022-11-01T12:22:15.729Z,16.98
2022-11-01T12:25:10.611Z,17.01
2022-11-01T12:28:00.909Z,17.04
2022-11-01T12:30:52.239Z,17.04
2022-11-01T12:33:59.307Z,17.06
2022-11-01T12:36:54.651Z,17.12
2022-11-01T12:40:01.839Z,17.18
2022-11-01T12:42:56.344Z,17.21
2022-11-01T12:45:53.254Z,17.23
2022-11-01T12:48:55.884Z,17.21
2022-11-01T12:51:48.868Z,17.22
2022-11-01T12:54:52.842Z,17.21
2022-11-01T12:57:39.866Z,17.17
2022-11-01T13:00:36.139Z,17.11
2022-11-01T13:03:47.766Z,17.14
2022-11-01T13:06:58.330Z,17.21
2022-11-01T13:10:11.202Z,17.27
2022-11-01T13:13:06.093Z,17.30
2022-11-01T13:16:19.426Z,17.42
2022-11-01T13:19:36.957Z,17.53
2022-11-01T13:22:38.146Z,17.56
2022-11-01T13:25:45.116Z,17.50
2022-11-01T13:28:39.005Z,17.52
2022-11-01T13:31:30.593Z,17.54
2022-11-01T13:34:20.886Z,17.50
2022-11-01T13:37:31.154Z,17.42
2022-11-01T13:40:42.632Z,17.37
2022-11-01T13:43:39.780Z,17.35
2022-11-01T13:46:34.754Z,17.31
2022-11-01T13:49:36.699Z,17.22
2022-11-01T13:52:30.447Z,17.13
2022-11-01T13:55:38.952Z,17.08
2022-11-01T13:58:25.944Z,17.05
2022-11-01T14:01:31.872Z,17.07
2022-11-01T14:04:18.776Z,17.07
2022-11-01T14:07:16.097Z,17.06
2022-11-01T14:10:10.886Z,17.04
2022-11-01T14:12:57.251Z,17.07
2022-11-01T14:15:55.048Z,17.09
2022-11-01T14:19:02.694Z,17.07
2022-11-01T14:21:49.364Z,17.07
2022-11-01T14:24:56.656Z,17.07
2022-11-01T14:27:50.368Z,17.08
2022-11-01T14:30:41.917Z,17.08
2022-11-01T14:33:27.416Z,17.11
2022-11-01T14:36:14.470Z,17.15
2022-11-01T14:39:02.841Z,17.14
2022-11-01T14:41:53.829Z,17.12
2022-11-01T14:44:50.569Z,17.09
2022-11-01T14:47:40.790Z,17.03
2022-11-01T14:50:32.453Z,16.96
2022-11-01T14:53:27.812Z,16.90
2022-11-01T14:56:21.691Z,16.83
2022-11-01T14:59:19.602Z,16.75
2022-11-01T15:02:07.144Z,16.66
2022-11-01T15:05:01.746Z,16.58
2022-11-01T15:07:55.539Z,16.53
2022-11-01T15:10:42.427Z,16.47
2022-11-01T15:17:01.710Z,16.33
2022-11-01T15:19:48.221Z,16.27
2022-11-01T15:22:34.101Z,16.23
2022-11-01T15:25:21.962Z,16.17
2022-11-01T15:28:07.552Z,16.12
2022-11-01T15:31:07.845Z,16.07
2022-11-01T15:33:56.726Z,16.03
2022-11-01T15:36:42.572Z,16.00
2022-11-01T15:39:31.637Z,15.94
2022-11-01T15:42:24.793Z,15.89
2022-11-01T15:45:27.972Z,15.83
2022-11-01T15:48:19.295Z,15.80
2022-11-01T15:51:08.891Z,15.76
2022-11-01T15:54:04.172Z,15.73
2022-11-01T15:56:59.101Z,15.71
2022-11-01T16:00:07.932Z,15.68
2022-11-01T16:03:06.930Z,15.62
2022-11-01T16:06:03.054Z,15.58
2022-11-01T16:09:05.051Z,15.56
2022-11-01T16:11:55.785Z,15.53
2022-11-01T16:14:41.703Z,15.50
2022-11-01T16:17:38.576Z,15.46
2022-11-01T16:20:47.073Z,15.44
2022-11-01T16:23:32.696Z,15.42
2022-11-01T16:26:17.829Z,15.39
2022-11-01T16:29:03.424Z,15.34
2022-11-01T16:32:09.465Z,15.33
2022-11-01T16:34:55.593Z,15.30
2022-11-01T16:37:43.789Z,15.25
2022-11-01T16:40:31.139Z,15.25
2022-11-01T16:43:16.380Z,15.24
2022-11-01T16:46:03.439Z,15.22
2022-11-01T16:48:51.868Z,15.19
2022-11-01T16:51:38.184Z,15.16
2022-11-01T16:54:25.517Z,15.15
2022-11-01T16:57:24.711Z,15.11
2022-11-01T17:00:13.637Z,15.10
2022-11-01T17:02:59.459Z,15.08
2022-11-01T17:05:45.242Z,15.10
2022-11-01T17:08:31.893Z,15.08
2022-11-01T17:11:17.131Z,15.08
2022-11-01T17:14:02.648Z,15.06
2022-11-01T17:16:50.467Z,15.04
2022-11-01T17:19:38.904Z,15.02
2022-11-01T17:22:31.924Z,15.01
2022-11-01T17:28:06.017Z,14.94
2022-11-01T17:30:52.251Z,14.90
2022-11-01T17:33:37.494Z,14.87
2022-11-01T17:36:22.597Z,14.85
2022-11-01T17:39:10.653Z,14.82
2022-11-01T17:41:59.193Z,14.79
2022-11-01T17:44:44.661Z,14.77
2022-11-01T17:47:30.136Z,14.73
2022-11-01T17:50:16.351Z,14.72
2022-11-01T17:53:02.200Z,14.68
2022-11-01T17:55:54.979Z,14.65
2022-11-01T17:58:40.086Z,14.63
2022-11-01T18:01:25.582Z,14.60
2022-11-01T18:04:11.668Z,14.57
2022-11-01T18:06:56.767Z,14.56
2022-11-01T18:09:42.007Z,14.53
2022-11-01T18:12:37.497Z,14.51
2022-11-01T18:15:34.319Z,14.48
2022-11-01T18:18:31.738Z,14.45
2022-11-01T18:21:29.627Z,14.41
2022-11-01T18:24:22.602Z,14.38
2022-11-01T18:27:12.719Z,14.35
2022-11-01T18:29:57.947Z,14.34
2022-11-01T18:33:06.082Z,14.30
2022-11-01T18:36:00.509Z,14.28
2022-11-01T18:39:12.930Z,14.25
2022-11-01T18:42:00.541Z,14.22
2022-11-01T18:44:46.276Z,14.20
2022-11-01T18:47:40.893Z,14.19
2022-11-01T18:50:26.675Z,14.18
2022-11-01T18:53:14.594Z,14.15
2022-11-01T18:56:22.258Z,14.14
2022-11-01T18:59:29.176Z,14.11
2022-11-01T19:02:21.745Z,14.11
2022-11-01T19:05:19.594Z,14.08
2022-11-01T19:08:20.518Z,14.05
2022-11-01T19:11:05.890Z,14.04
2022-11-01T19:13:51.213Z,14.03
2022-11-01T19:16:37.859Z,14.02
2022-11-01T19:19:23.402Z,13.98
2022-11-01T19:22:28.333Z,13.94
2022-11-01T19:25:21.887Z,13.88
2022-11-01T19:28:19.780Z,13.84
2022-11-01T19:31:27.030Z,13.80
2022-11-01T19:34:19.831Z,13.79
2022-11-01T19:37:19.768Z,13.80
2022-11-01T19:40:26.565Z,13.78
2022-11-01T19:43:15.641Z,13.75
2022-11-01T19:46:01.413Z,13.73
2022-11-01T19:48:47.656Z,13.71
2022-11-01T19:51:32.817Z,13.69
2022-11-01T19:54:21.171Z,13.66
2022-11-01T19:57:27.762Z,13.63
2022-11-01T20:00:22.211Z,13.62
2022-11-01T20:03:22.559Z,13.60
2022-11-01T20:06:21.185Z,13.60
2022-11-01T20:09:16.364Z,13.57
2022-11-01T20:12:02.285Z,13.55
2022-11-01T20:14:47.612Z,13.49
2022-11-01T20:17:33.425Z,13.46
2022-11-01T20:20:18.928Z,13.40
2022-11-01T20:23:25.210Z,13.39
2022-11-01T20:26:09.757Z,13.37
2022-11-01T20:28:55.866Z,13.35
2022-11-01T20:31:41.032Z,13.30
2022-11-01T20:34:27.237Z,13.27
2022-11-01T20:37:28.128Z,13.26
2022-11-01T20:40:14.240Z,13.25
2022-11-01T20:43:00.143Z,13.25
2022-11-01T20:45:45.322Z,13.24
2022-11-01T20:48:31.175Z,13.22
2022-11-01T20:51:16.141Z,13.20
2022-11-01T20:54:01.153Z,13.16
2022-11-01T20:56:46.649Z,13.18
2022-11-01T20:59:32.134Z,13.15
2022-11-01T21:02:19.324Z,13.13
2022-11-01T21:05:16.726Z,13.06
2022-11-01T21:08:08.027Z,13.03
2022-11-01T21:11:02.085Z,13.02
2022-11-01T21:13:48.243Z,13.00
2022-11-01T21:16:33.322Z,12.97
2022-11-01T21:19:23.557Z,12.98
2022-11-01T21:22:18.771Z,12.98
2022-11-01T21:25:04.331Z,12.97
2022-11-01T21:27:50.206Z,12.93
2022-11-01T21:30:35.414Z,12.90
2022-11-01T21:33:33.928Z,12.87
2022-11-01T21:36:19.189Z,12.85
2022-11-01T21:39:25.129Z,12.80
2022-11-01T21:42:33.732Z,12.78
2022-11-01T21:45:31.381Z,12.73
2022-11-01T21:48:29.722Z,12.72
2022-11-01T21:51:15.109Z,12.70
2022-11-01T21:54:04.325Z,12.67
2022-11-01T21:56:50.542Z,12.70
2022-11-01T21:59:36.761Z,12.68
2022-11-01T22:02:22.193Z,12.68
2022-11-01T22:05:07.505Z,12.64
2022-11-01T22:07:52.725Z,12.62
2022-11-01T22:10:38.227Z,12.61
2022-11-01T22:13:23.326Z,12.60
2022-11-01T22:16:08.664Z,12.59
2022-11-01T22:18:54.151Z,12.58
2022-11-01T22:21:39.931Z,12.57
2022-11-01T22:24:25.666Z,12.54
2022-11-01T22:27:11.219Z,12.48
2022-11-01T22:29:56.617Z,12.50
2022-11-01T22:32:42.446Z,12.50
2022-11-01T22:35:28.309Z,12.48
2022-11-01T22:38:25.033Z,12.46
2022-11-01T22:41:23.223Z,12.45
2022-11-01T22:44:15.014Z,12.40
2022-11-01T22:47:02.685Z,12.37
2022-11-01T22:49:53.359Z,12.34
2022-11-01T22:52:44.324Z,12.32
2022-11-01T22:55:30.912Z,12.31
2022-11-01T22:58:32.431Z,12.33
2022-11-01T23:01:27.668Z,12.31
2022-11-01T23:04:22.083Z,12.33
2022-11-01T23:07:27.058Z,12.31
2022-11-01T23:10:38.552Z,12.28
2022-11-01T23:13:52.650Z,12.26
2022-11-01T23:16:42.904Z,12.25
2022-11-01T23:19:28.401Z,12.23
2022-11-01T23:22:25.432Z,12.21
2022-11-01T23:25:13.018Z,12.20
2022-11-01T23:27:58.910Z,12.19
2022-11-01T23:30:46.834Z,12.12
2022-11-01T23:33:39.921Z,12.08
2022-11-01T23:36:36.205Z,12.31
2022-11-01T23:39:22.109Z,12.57
2022-11-01T23:42:18.550Z,12.60
2022-11-01T23:45:06.225Z,12.69
2022-11-01T23:47:51.774Z,12.69
2022-11-01T23:50:37.086Z,12.61
2022-11-01T23:53:50.796Z,12.53
2022-11-01T23:56:36.096Z,12.56
2022-11-01T23:59:21.357Z,12.43
